createdAt,value
2023-03-24T00:01:52.341Z,48.63
2023-03-24T00:05:00.821Z,47.83
2023-03-24T00:08:08.583Z,44.32
2023-03-24T00:11:18.847Z,43.31
2023-03-24T00:14:25.951Z,42.99
2023-03-24T00:17:32.149Z,45.26
2023-03-24T00:20:41.465Z,45.86
2023-03-24T00:23:48.031Z,42.47
2023-03-24T00:26:57.841Z,42.19
2023-03-24T00:30:05.062Z,45.11
2023-03-24T00:33:12.008Z,45.85
2023-03-24T00:36:18.579Z,42.50
2023-03-24T00:39:25.481Z,43.21
2023-03-24T00:42:37.190Z,44.06
2023-03-24T00:45:46.553Z,43.85
2023-03-24T00:48:52.633Z,43.85
2023-03-24T00:52:02.139Z,46.45
2023-03-24T00:55:10.577Z,46.25
2023-03-24T00:58:24.706Z,45.45
2023-03-24T01:01:39.218Z,45.76
2023-03-24T01:04:47.485Z,44.55
2023-03-24T01:07:56.897Z,43.47
2023-03-24T01:11:04.990Z,42.85
2023-03-24T01:14:15.217Z,45.22
2023-03-24T01:17:22.573Z,47.83
2023-03-24T01:20:33.421Z,46.30
2023-03-24T01:23:42.167Z,50.56
2023-03-24T01:26:48.335Z,49.39
2023-03-24T01:30:03.247Z,52.92
2023-03-24T01:33:09.877Z,54.56
2023-03-24T01:36:16.793Z,57.31
2023-03-24T01:39:23.023Z,63.43
2023-03-24T01:42:31.734Z,69.02
2023-03-24T01:46:00.398Z,70.64
2023-03-24T01:49:11.453Z,71.34
2023-03-24T01:52:24.913Z,75.21
2023-03-24T01:55:37.370Z,79.77
2023-03-24T01:58:51.908Z,97.38
2023-03-24T02:02:15.225Z,106.82
2023-03-24T02:05:36.845Z,96.23
2023-03-24T02:08:55.189Z,76.94
2023-03-24T02:12:03.380Z,64.88
2023-03-24T02:15:13.967Z,63.18
2023-03-24T02:18:45.257Z,61.21
2023-03-24T02:22:55.020Z,64.03
2023-03-24T02:27:08.061Z,69.80
2023-03-24T02:31:11.437Z,68.16
2023-03-24T02:35:10.927Z,64.70
2023-03-24T02:39:16.480Z,75.22
2023-03-24T02:42:47.782Z,81.60
2023-03-24T02:46:15.339Z,85.68
2023-03-24T02:49:37.251Z,83.96
2023-03-24T02:52:53.917Z,81.86
2023-03-24T02:56:10.454Z,81.37
2023-03-24T02:59:29.742Z,78.41
2023-03-24T03:02:49.363Z,77.08
2023-03-24T03:06:04.957Z,76.41
2023-03-24T03:09:18.328Z,75.97
2023-03-24T03:12:38.849Z,72.40
2023-03-24T03:15:55.774Z,69.82
2023-03-24T03:19:10.186Z,71.35
2023-03-24T03:22:24.486Z,74.78
2023-03-24T03:25:42.398Z,72.98
2023-03-24T03:29:00.347Z,75.01
2023-03-24T03:32:21.960Z,77.31
2023-03-24T03:35:39.626Z,75.25
2023-03-24T03:38:59.794Z,78.98
2023-03-24T03:42:08.038Z,76.36
2023-03-24T03:45:15.872Z,78.20
2023-03-24T03:48:26.819Z,78.67
2023-03-24T03:51:35.986Z,87.94
2023-03-24T03:54:46.115Z,83.36
2023-03-24T03:57:54.168Z,80.45
2023-03-24T04:01:10.417Z,78.97
2023-03-24T04:05:05.849Z,77.41
2023-03-24T04:08:49.582Z,85.52
2023-03-24T04:12:34.159Z,93.31
2023-03-24T04:16:17.751Z,92.30
2023-03-24T04:20:06.259Z,91.89
2023-03-24T04:23:31.087Z,93.29
2023-03-24T04:26:51.496Z,94.79
2023-03-24T04:30:17.679Z,95.23
2023-03-24T04:33:39.373Z,101.36
2023-03-24T04:36:56.787Z,119.08
2023-03-24T04:40:15.061Z,127.84
2023-03-24T04:43:30.033Z,119.75
2023-03-24T04:46:38.041Z,115.45
2023-03-24T04:49:52.343Z,123.63
2023-03-24T04:53:02.516Z,120.71
2023-03-24T04:56:37.729Z,117.19
2023-03-24T04:59:51.312Z,123.05
2023-03-24T05:02:58.606Z,119.95
2023-03-24T05:06:09.992Z,128.17
2023-03-24T05:09:21.697Z,163.38
2023-03-24T05:12:28.379Z,163.10
2023-03-24T05:15:56.894Z,151.15
2023-03-24T05:19:09.869Z,180.13
2023-03-24T05:22:16.053Z,180.60
2023-03-24T05:25:26.655Z,170.03
2023-03-24T05:28:32.921Z,171.38
2023-03-24T05:31:39.809Z,187.52
2023-03-24T05:34:48.729Z,189.94
2023-03-24T05:37:56.272Z,266.73
2023-03-24T05:41:06.293Z,196.95
2023-03-24T05:44:16.924Z,244.42
2023-03-24T05:47:34.384Z,195.42
2023-03-24T05:50:41.559Z,212.75
2023-03-24T05:53:47.532Z,277.58
2023-03-24T05:57:00.142Z,163.49
2023-03-24T06:00:18.179Z,158.79
2023-03-24T06:03:40.762Z,227.79
2023-03-24T06:06:50.923Z,209.91
2023-03-24T06:10:03.809Z,192.62
2023-03-24T06:13:25.024Z,162.72
2023-03-24T06:16:34.309Z,155.35
2023-03-24T06:19:49.927Z,155.81
2023-03-24T06:23:15.651Z,166.53
2023-03-24T06:26:34.770Z,177.57
2023-03-24T06:29:53.537Z,170.95
2023-03-24T06:32:59.571Z,165.90
2023-03-24T06:36:07.006Z,164.00
2023-03-24T06:39:13.342Z,152.36
2023-03-24T06:42:20.783Z,148.73
2023-03-24T06:45:31.178Z,162.40
2023-03-24T06:48:40.081Z,153.86
2023-03-24T06:51:47.232Z,152.24
2023-03-24T06:54:56.051Z,154.23
2023-03-24T06:58:02.652Z,162.64
2023-03-24T07:01:38.923Z,183.31
2023-03-24T07:05:07.529Z,164.02
2023-03-24T07:11:35.727Z,161.15
2023-03-24T07:14:43.271Z,176.77
2023-03-24T07:17:52.079Z,167.56
2023-03-24T07:21:13.002Z,215.31
2023-03-24T07:24:19.916Z,145.47
2023-03-24T07:27:41.689Z,147.02
2023-03-24T07:30:49.097Z,157.39
2023-03-24T07:34:02.119Z,155.47
2023-03-24T07:37:08.719Z,148.75
2023-03-24T07:40:17.237Z,161.15
2023-03-24T07:43:24.843Z,150.51
2023-03-24T07:46:50.508Z,148.06
2023-03-24T07:49:59.189Z,155.31
2023-03-24T07:53:06.091Z,149.38
2023-03-24T07:56:12.053Z,165.90
2023-03-24T07:59:28.798Z,160.36
2023-03-24T08:02:50.064Z,143.51
2023-03-24T08:06:25.179Z,124.58
2023-03-24T08:09:35.108Z,124.06
2023-03-24T08:12:41.894Z,124.73
2023-03-24T08:15:48.088Z,115.10
2023-03-24T08:18:58.517Z,114.69
2023-03-24T08:22:08.388Z,112.70
2023-03-24T08:25:16.459Z,103.17
2023-03-24T08:28:23.329Z,101.96
2023-03-24T08:31:36.116Z,103.49
2023-03-24T08:34:42.059Z,109.37
2023-03-24T08:37:51.708Z,101.03
2023-03-24T08:41:02.402Z,99.34
2023-03-24T08:44:11.915Z,96.09
2023-03-24T08:47:17.786Z,95.12
2023-03-24T08:50:28.407Z,91.14
2023-03-24T08:53:38.355Z,87.00
2023-03-24T08:56:45.682Z,89.34
2023-03-24T08:59:51.682Z,86.47
2023-03-24T09:03:01.406Z,84.92
2023-03-24T09:06:18.087Z,88.50
2023-03-24T09:09:29.915Z,80.87
2023-03-24T09:12:36.433Z,73.13
2023-03-24T09:15:43.749Z,69.94
2023-03-24T09:18:53.332Z,65.23
2023-03-24T09:21:59.993Z,67.53
2023-03-24T09:25:10.800Z,59.68
2023-03-24T09:28:17.489Z,62.25
2023-03-24T09:31:24.136Z,63.92
2023-03-24T09:34:32.888Z,64.82
2023-03-24T09:37:40.963Z,64.26
2023-03-24T09:40:58.159Z,63.52
2023-03-24T09:44:16.850Z,67.94
2023-03-24T09:47:34.648Z,71.03
2023-03-24T09:50:55.133Z,73.52
2023-03-24T09:54:17.949Z,74.94
2023-03-24T09:57:37.685Z,75.61
2023-03-24T10:00:47.983Z,78.38
2023-03-24T10:03:54.239Z,80.70
2023-03-24T10:07:16.091Z,80.41
2023-03-24T10:10:41.104Z,80.47
2023-03-24T10:14:09.311Z,78.52
2023-03-24T10:17:32.605Z,84.88
2023-03-24T10:20:50.596Z,79.10
2023-03-24T10:24:09.932Z,78.09
2023-03-24T10:27:33.814Z,75.03
2023-03-24T10:30:49.515Z,75.20
2023-03-24T10:33:57.021Z,71.57
2023-03-24T10:37:06.586Z,75.82
2023-03-24T10:40:22.559Z,73.04
2023-03-24T10:43:31.042Z,76.64
2023-03-24T10:46:49.977Z,74.32
2023-03-24T10:50:00.955Z,74.77
2023-03-24T10:53:24.557Z,71.63
2023-03-24T10:56:44.058Z,74.65
2023-03-24T10:59:59.955Z,79.48
2023-03-24T11:03:18.599Z,75.36
2023-03-24T11:06:25.563Z,78.74
2023-03-24T11:09:32.859Z,81.53
2023-03-24T11:12:43.981Z,78.40
2023-03-24T11:16:14.365Z,78.11
2023-03-24T11:19:27.443Z,81.31
2023-03-24T11:22:36.108Z,79.13
2023-03-24T11:25:47.500Z,84.17
2023-03-24T11:29:00.033Z,115.75
2023-03-24T11:32:17.911Z,86.48
2023-03-24T11:35:40.839Z,126.89
2023-03-24T11:39:04.552Z,95.07
2023-03-24T11:42:20.319Z,81.41
2023-03-24T11:45:40.967Z,92.92
2023-03-24T11:48:56.384Z,81.03
2023-03-24T11:52:18.209Z,80.63
2023-03-24T11:55:38.268Z,77.49
2023-03-24T11:58:54.545Z,84.08
2023-03-24T12:02:17.813Z,84.01
2023-03-24T12:05:36.819Z,83.10
2023-03-24T12:09:07.542Z,84.96
2023-03-24T12:12:41.976Z,81.42
2023-03-24T12:16:08.090Z,83.35
2023-03-24T12:19:41.113Z,82.76
2023-03-24T12:23:04.346Z,86.19
2023-03-24T12:26:30.892Z,90.54
2023-03-24T12:30:05.794Z,80.39
2023-03-24T12:33:40.993Z,81.09
2023-03-24T12:37:01.591Z,90.41
2023-03-24T12:40:41.767Z,106.96
2023-03-24T12:44:30.934Z,93.06
2023-03-24T12:48:21.304Z,89.05
2023-03-24T12:51:46.689Z,90.15
2023-03-24T12:55:05.278Z,94.06
2023-03-24T12:58:23.827Z,92.21
2023-03-24T13:01:41.974Z,93.05
2023-03-24T13:04:56.121Z,89.99
2023-03-24T13:08:09.077Z,92.77
2023-03-24T13:11:32.949Z,91.00
2023-03-24T13:14:58.195Z,99.39
2023-03-24T13:18:26.574Z,89.67
2023-03-24T13:21:35.483Z,87.51
2023-03-24T13:24:42.309Z,86.10
2023-03-24T13:27:57.273Z,92.84
2023-03-24T13:31:09.899Z,96.03
2023-03-24T13:34:36.624Z,96.16
2023-03-24T13:37:51.606Z,99.53
2023-03-24T13:41:00.295Z,95.78
2023-03-24T13:44:20.940Z,90.61
2023-03-24T13:47:30.120Z,90.68
2023-03-24T13:50:45.357Z,93.98
2023-03-24T13:54:00.283Z,97.04
2023-03-24T13:57:20.710Z,98.26
2023-03-24T14:00:33.830Z,99.45
2023-03-24T14:03:44.374Z,95.13
2023-03-24T14:06:56.350Z,94.84
2023-03-24T14:10:30.537Z,93.45
2023-03-24T14:13:48.932Z,92.56
2023-03-24T14:17:13.960Z,88.62
2023-03-24T14:20:38.278Z,86.76
2023-03-24T14:23:52.762Z,78.19
2023-03-24T14:27:00.141Z,69.20
2023-03-24T14:30:19.929Z,64.81
2023-03-24T14:33:29.787Z,52.64
2023-03-24T14:36:41.453Z,54.24
2023-03-24T14:39:52.602Z,54.55
2023-03-24T14:43:08.219Z,52.99
2023-03-24T14:46:42.001Z,53.79
2023-03-24T14:49:52.522Z,56.14
2023-03-24T14:53:06.241Z,56.70
2023-03-24T14:56:20.504Z,58.87
2023-03-24T14:59:42.394Z,58.56
2023-03-24T15:02:51.341Z,59.10
2023-03-24T15:06:07.561Z,54.29
2023-03-24T15:09:14.503Z,55.32
2023-03-24T15:12:25.229Z,57.29
2023-03-24T15:15:31.956Z,59.82
2023-03-24T15:18:49.768Z,56.65
2023-03-24T15:22:06.969Z,57.79
2023-03-24T15:25:14.650Z,59.62
2023-03-24T15:28:29.624Z,59.70
2023-03-24T15:31:39.506Z,58.95
2023-03-24T15:34:55.379Z,66.05
2023-03-24T15:38:02.059Z,84.98
2023-03-24T15:41:15.837Z,86.88
2023-03-24T15:44:31.329Z,83.30
2023-03-24T15:47:44.258Z,76.70
2023-03-24T15:51:04.446Z,77.24
2023-03-24T15:54:27.008Z,76.30
2023-03-24T15:57:43.828Z,109.81
2023-03-24T16:00:58.423Z,70.87
2023-03-24T16:04:10.823Z,64.23
2023-03-24T16:07:31.136Z,64.36
2023-03-24T16:10:43.320Z,70.65
2023-03-24T16:13:49.341Z,64.40
2023-03-24T16:17:02.493Z,71.47
2023-03-24T16:20:13.538Z,91.48
2023-03-24T16:23:20.439Z,71.35
2023-03-24T16:26:29.465Z,101.10
2023-03-24T16:29:37.945Z,110.64
2023-03-24T16:32:46.581Z,79.87
2023-03-24T16:35:53.393Z,85.75
2023-03-24T16:39:02.857Z,80.56
2023-03-24T16:42:09.971Z,92.69
2023-03-24T16:45:15.910Z,90.85
2023-03-24T16:48:25.280Z,100.46
2023-03-24T16:51:31.321Z,106.88
2023-03-24T16:54:38.093Z,100.44
2023-03-24T16:57:44.041Z,96.75
2023-03-24T17:00:51.964Z,96.83
2023-03-24T17:04:04.010Z,92.84
2023-03-24T17:07:12.470Z,93.98
2023-03-24T17:10:18.864Z,89.09
2023-03-24T17:13:28.534Z,87.91
2023-03-24T17:16:36.903Z,94.23
2023-03-24T17:19:48.066Z,95.00
2023-03-24T17:22:58.141Z,101.24
2023-03-24T17:26:05.438Z,126.31
2023-03-24T17:29:13.319Z,161.10
2023-03-24T17:32:21.836Z,160.38
2023-03-24T17:35:30.991Z,117.93
2023-03-24T17:38:38.393Z,121.94
2023-03-24T17:41:44.993Z,110.82
2023-03-24T17:44:52.229Z,108.06
2023-03-24T17:48:01.093Z,110.39
2023-03-24T17:51:11.757Z,113.48
2023-03-24T17:54:22.544Z,130.39
2023-03-24T17:57:29.325Z,139.97
2023-03-24T18:00:35.494Z,131.62
2023-03-24T18:03:43.167Z,125.36
2023-03-24T18:06:51.794Z,125.45
2023-03-24T18:09:58.674Z,128.02
2023-03-24T18:13:04.917Z,131.54
2023-03-24T18:16:21.479Z,139.91
2023-03-24T18:19:28.051Z,143.54
2023-03-24T18:22:37.870Z,138.36
2023-03-24T18:25:43.884Z,163.31
2023-03-24T18:28:50.645Z,147.11
2023-03-24T18:31:57.006Z,144.78
2023-03-24T18:35:05.291Z,130.34
2023-03-24T18:38:15.440Z,137.28
2023-03-24T18:41:24.721Z,139.54
2023-03-24T18:44:30.784Z,138.86
2023-03-24T18:47:38.225Z,133.09
2023-03-24T18:50:44.159Z,126.21
2023-03-24T18:53:54.184Z,132.67
2023-03-24T18:57:00.425Z,135.55
2023-03-24T19:00:13.496Z,135.48
2023-03-24T19:03:20.034Z,133.56
2023-03-24T19:06:31.766Z,131.56
2023-03-24T19:09:40.578Z,125.76
2023-03-24T19:12:47.521Z,121.17
2023-03-24T19:15:56.977Z,115.56
2023-03-24T19:19:03.642Z,112.16
2023-03-24T19:22:09.663Z,106.46
2023-03-24T19:25:19.721Z,112.64
2023-03-24T19:28:27.074Z,111.33
2023-03-24T19:31:35.399Z,101.07
2023-03-24T19:34:41.724Z,91.12
2023-03-24T19:37:48.763Z,89.12
2023-03-24T19:40:58.192Z,92.07
2023-03-24T19:44:04.891Z,98.95
2023-03-24T19:47:11.888Z,101.00
2023-03-24T19:50:21.405Z,107.96
2023-03-24T19:53:31.615Z,107.31
2023-03-24T19:56:41.277Z,107.38
2023-03-24T19:59:47.308Z,94.01
2023-03-24T20:02:54.119Z,80.70
2023-03-24T20:06:05.852Z,76.40
2023-03-24T20:09:12.629Z,77.09
2023-03-24T20:12:21.738Z,73.27
2023-03-24T20:15:28.319Z,69.43
2023-03-24T20:18:34.480Z,70.27
2023-03-24T20:21:41.315Z,73.61
2023-03-24T20:24:48.428Z,71.90
2023-03-24T20:27:57.667Z,74.77
2023-03-24T20:31:06.723Z,71.64
2023-03-24T20:34:14.365Z,74.28
2023-03-24T20:37:20.279Z,86.72
2023-03-24T20:40:27.041Z,87.12
2023-03-24T20:43:40.506Z,88.66
2023-03-24T20:46:47.222Z,90.56
2023-03-24T20:49:53.414Z,91.31
2023-03-24T20:53:00.025Z,98.14
2023-03-24T20:56:09.919Z,118.86
2023-03-24T20:59:19.499Z,125.63
2023-03-24T21:02:25.619Z,129.16
2023-03-24T21:05:32.304Z,134.61
2023-03-24T21:08:38.301Z,122.65
2023-03-24T21:11:45.111Z,119.75
2023-03-24T21:14:54.760Z,115.54
2023-03-24T21:18:02.209Z,134.35
2023-03-24T21:21:12.818Z,118.24
2023-03-24T21:24:19.966Z,108.48
2023-03-24T21:27:26.149Z,98.81
2023-03-24T21:30:35.786Z,101.33
2023-03-24T21:33:43.780Z,97.56
2023-03-24T21:36:55.866Z,104.33
2023-03-24T21:40:02.580Z,107.01
2023-03-24T21:43:09.450Z,97.78
2023-03-24T21:46:21.615Z,94.72
2023-03-24T21:49:28.647Z,85.22
2023-03-24T21:52:39.228Z,78.47
2023-03-24T21:55:53.863Z,78.09
2023-03-24T21:59:00.169Z,66.49
2023-03-24T22:02:17.390Z,62.85
2023-03-24T22:05:30.584Z,65.46
2023-03-24T22:08:39.177Z,55.08
2023-03-24T22:11:45.658Z,49.72
2023-03-24T22:14:53.200Z,52.60
2023-03-24T22:18:01.678Z,57.17
2023-03-24T22:21:13.583Z,57.13
2023-03-24T22:24:23.166Z,52.71
2023-03-24T22:27:34.452Z,44.46
2023-03-24T22:30:43.566Z,44.82
2023-03-24T22:33:53.087Z,52.56
2023-03-24T22:36:59.435Z,46.23
2023-03-24T22:40:08.803Z,41.16
2023-03-24T22:43:14.929Z,40.97
2023-03-24T22:46:22.522Z,50.39
2023-03-24T22:49:31.335Z,51.77
2023-03-24T22:52:38.372Z,49.50
2023-03-24T22:55:45.110Z,55.08
2023-03-24T22:58:51.920Z,76.43
2023-03-24T23:02:08.734Z,179.20
2023-03-24T23:05:19.922Z,259.28
2023-03-24T23:08:29.797Z,297.68
2023-03-24T23:11:37.078Z,159.60
2023-03-24T23:14:46.812Z,169.22
2023-03-24T23:17:54.429Z,165.50
2023-03-24T23:21:10.473Z,87.64
2023-03-24T23:24:17.379Z,110.69
2023-03-24T23:27:25.868Z,87.29
2023-03-24T23:42:19.003Z,42.07
2023-03-24T23:45:26.234Z,39.51
2023-03-24T23:48:35.392Z,42.73
2023-03-24T23:51:42.605Z,39.36
2023-03-24T23:54:51.229Z,40.30
2023-03-24T23:57:58.263Z,40.94
